Racecast

SEC-Red Jamboree #2

Huron Meadows Metropark OFFICIAL · 5000m · Girls · Compiled · MI

218 runners from 2 divisions

These divisions were run separately. This is how their times compare, not how they finished — the places and scores below were never contested.

View full meet →

Team scores

Place Team Points 12345 67
1 Saline (MI) 25 1 3 5 6 10 12 13
2 Ann Arbor Pioneer (MI) 40 2 4 7 11 16 19 34
3 Temperance Bedford (MI) 95 14 17 18 22 24 27 38
4 Monroe (MI) 120 8 15 29 32 36 41 42
5 Ann Arbor Huron (MI) 122 20 21 23 28 30 37 40
6 Ann Arbor Skyline (MI) 124 9 25 26 31 33 35 39

Results

Place Athlete Grade School Time Rating Points Actual race
1 Hannah Cummings 11 Saline (MI) 1 18:38.9 133.4 1 1
2 Anne Forsyth 9 Ann Arbor Pioneer (MI) 1 18:41.8 133.0 2 2
3 Gillian Walter 11 Saline (MI) 2 19:01.5 130.7 3 3
4 Jacalyn Overdier 10 Ann Arbor Pioneer (MI) 2 19:22.7 128.3 4 4
5 Abby Rentschler 12 Saline (MI) 3 19:40.1 126.4 5 5
6 Jessi Larson 9 Saline (MI) 4 19:41.3 126.3 6 6
7 Sydney Dawes 10 Ann Arbor Pioneer (MI) 3 19:51.6 125.2 7 7
8 Elisabeth LaPrad 9 Monroe (CA) 1 20:05.4 123.8 8 8
9 Camille Kukor 9 Ann Arbor Skyline (MI) 1 20:07.0 123.6 9 9
10 Hannah Fischer 10 Saline (MI) 5 20:11.2 123.2 10 10
11 Carrie Duerksen 10 Ann Arbor Pioneer (MI) 4 20:15.4 122.8 11 11
12 Lillie Phelps 11 Saline (MI) 6 20:19.5 122.3 12 12
13 Haleigh Cummings 11 Saline (MI) 7 20:21.0 122.2 13 13
14 Roma Lucarelli 11 Temperance Bedford (MI) 1 20:24.0 121.9 14 14
15 Katherine Fedoronko 11 Saline (MI) 8 20:33.8 120.9 15
16 Athena Slawski 10 Saline (MI) 9 20:37.2 120.6 16
17 Lydia Malik 9 Monroe (CA) 2 20:45.4 119.8 15 17
18 Danielle Fillmore 11 Saline (MI) 10 20:52.0 119.2 1
19 Sanelma Heinonen 11 Ann Arbor Pioneer (MI) 5 20:54.4 118.9 16 18
20 Maggie Finn 9 Saline (MI) 11 20:55.4 118.8 2
21 Paige Hallstrom 12 Temperance Bedford (MI) 2 20:58.3 118.6 17 19
22 Rachel Boulton 11 Temperance Bedford (MI) 3 21:06.3 117.8 18 20
23 Elizabeth Kos 9 Ann Arbor Pioneer (MI) 6 21:06.3 117.8 19 21
24 Shuqi Chen 10 Ann Arbor Huron (MI) 1 21:06.3 117.8 20 22
25 Olivia Cell 11 Ann Arbor Huron (MI) 2 21:12.0 117.3 21 23
26 Regan Barsch 10 Saline (MI) 12 21:19.4 116.6 3
27 Juliana Boyd 10 Saline (MI) 13 21:23.0 116.3 4
28 Kayla Chmiel 12 Temperance Bedford (MI) 4 21:23.6 116.2 22 24
29 Allie Forman 12 Ann Arbor Huron (MI) 3 21:24.7 116.1 23 25
30 Mallory Castor 9 Saline (MI) 14 21:24.7 116.1 5
31 Morgan McCormick 11 Temperance Bedford (MI) 5 21:33.0 115.4 24 26
32 Holly Treber 11 Saline (MI) 15 21:36.5 115.1 6
33 Lydia Gilbert 9 Ann Arbor Skyline (MI) 2 21:36.9 115.1 25 27
34 Gabrielle Peck 11 Ann Arbor Skyline (MI) 3 21:37.5 115.0 26 28
35 Amber Wiederhold 10 Temperance Bedford (MI) 6 21:37.9 115.0 27 29
36 Sarah Neumar 12 Ann Arbor Huron (MI) 4 21:40.2 114.8 28 30
37 Sidney Towalski 11 Monroe (CA) 3 21:40.5 114.7 29 31
38 Taelor Young 11 Saline (MI) 16 21:41.9 114.6 32
39 Samantha Lin 11 Ann Arbor Huron (MI) 5 21:43.7 114.4 30 33
40 Emi Jackson 12 Ann Arbor Skyline (MI) 4 21:44.6 114.4 31 34
41 Gillian Hartley 10 Saline (MI) 17 21:45.0 114.3 7
42 Autumn Green 10 Monroe (CA) 4 21:51.4 113.8 32 35
43 Arie Park 10 Ann Arbor Skyline (MI) 5 21:53.9 113.6 33 36
44 Mackenzie Dalton 11 Ann Arbor Pioneer (MI) 7 22:00.3 113.0 34 37
45 Katie Clark 9 Saline (MI) 18 22:01.4 112.9 8
46 Kyra Ross 11 Saline (MI) 19 22:01.9 112.9 9
47 Emily Allison 11 Ann Arbor Skyline (MI) 6 22:02.9 112.8 35 38
48 Natalie Maas 11 Monroe (CA) 5 22:03.2 112.8 36 39
49 Victoria Roberts 10 Ann Arbor Pioneer (MI) 8 22:04.5 112.7 40
50 Hannah Wilson 9 Saline (MI) 20 22:04.6 112.6 10
51 Katherine Riles 10 Ann Arbor Pioneer (MI) 9 22:04.9 112.6 41
52 Abigail Wilson 9 Saline (MI) 21 22:07.7 112.4 11
53 Vivian Hu 12 Saline (MI) 22 22:08.1 112.3 12
54 Hannah Bartoshesky 11 Ann Arbor Huron (MI) 6 22:08.3 112.3 37 42
55 Halie Schultz 10 Temperance Bedford (MI) 7 22:08.4 112.3 38 13
56 Micaela Keller 11 Ann Arbor Skyline (MI) 7 22:09.4 112.2 39 43
57 Regan Smith 11 Saline (MI) 23 22:12.5 112.0 14
58 Rachel Rosati 9 Saline (MI) 24 22:13.3 111.9 15
59 Alyssa Lowe 11 Temperance Bedford (MI) 8 22:16.8 111.6 44
60 Emily Diehl 12 Saline (MI) 25 22:23.7 111.0 16
61 Kristen Hayden 11 Ann Arbor Huron (MI) 7 22:26.3 110.8 40 45
62 Carly Sharp 12 Ann Arbor Skyline (MI) 8 22:26.8 110.8 46
63 Aubrey Loftus 12 Saline (MI) 26 22:33.8 110.2 17
64 Charlotte Ramser 10 Ann Arbor Pioneer (MI) 10 22:34.7 110.1 18
65 Jillian Santos 12 Saline (MI) 27 22:37.9 109.9 19
66 Katie Bules 12 Temperance Bedford (MI) 9 22:42.8 109.5 47
67 Autumn Oxer 9 Temperance Bedford (MI) 10 22:43.4 20
68 Kelly Hong 12 Ann Arbor Pioneer (MI) 11 22:53.3 108.7 48
69 Allie Pete 12 Temperance Bedford (MI) 11 22:57.0 108.4 21
70 Sloane Lynch 11 Monroe (CA) 6 22:58.2 108.3 41 49
71 Tess McGuire 11 Saline (MI) 28 22:58.3 108.2 22
72 Kasey Mclaughlin 10 Monroe (CA) 7 23:00.9 108.1 42 50
73 Marina Cayen 10 Saline (MI) 29 23:04.0 107.8 23
74 Madeline Bacolor 10 Ann Arbor Pioneer (MI) 12 23:09.5 107.4 24
75 Susanne Sheng 11 Ann Arbor Huron (MI) 8 23:12.9 107.1 51
76 Cheyenne Bolton 9 Monroe (CA) 8 23:13.6 107.1 52
77 Sara Nelson 11 Saline (MI) 30 23:14.4 107.0 25
78 Jamie Johnson 11 Ann Arbor Pioneer (MI) 13 23:16.2 106.9 26
79 Aliyah Scott 10 Monroe (CA) 9 23:18.7 106.7 53
80 Lauren Wilkie 11 Saline (MI) 31 23:18.9 106.7 27
81 Madyson Farris 11 Monroe (CA) 10 23:26.9 106.1 54
82 Rachel Pacernick 9 Ann Arbor Pioneer (MI) 14 23:31.3 105.7 28
83 Megan Scott 12 Saline (MI) 32 23:35.3 105.4 29
84 Morgan Jones 9 Saline (MI) 33 23:41.0 105.0 30
85 Kelsie Boyer 12 Monroe (CA) 11 23:42.4 104.9 31
86 Natasha Webb 11 Saline (MI) 34 23:45.4 104.7 32
87 Margy Hunter 9 Saline (MI) 35 23:46.8 104.6 33
88 Olivia Cook 9 Temperance Bedford (MI) 12 23:47.8 104.5 34
89 Elizabeth Riles 10 Ann Arbor Pioneer (MI) 15 23:49.3 104.4 35
90 Tara Van Nieuwstadt 11 Ann Arbor Huron (MI) 9 23:57.7 103.8 55
91 Janine Chouinard 11 Ann Arbor Skyline (MI) 9 24:00.3 103.6 36
92 Anne Boxeth 12 Saline (MI) 36 24:01.3 103.5 37
93 Julia Sheehan 10 Ann Arbor Pioneer (MI) 16 24:06.0 103.2 38
94 Kelliann Smith 10 Monroe (CA) 12 24:06.1 103.2 39
95 Sophie Steinberg 11 Ann Arbor Skyline (MI) 10 24:08.6 103.0 56
96 Victoria Miller 9 Ann Arbor Skyline (MI) 11 24:11.3 102.8 57
97 Moriah Torongeau 9 Temperance Bedford (MI) 13 24:14.4 102.6 40
98 Ally Hansen 11 Temperance Bedford (MI) 14 24:15.4 102.5 41
99 Celeste Pan 9 Ann Arbor Huron (MI) 10 24:16.6 102.4 42
100 Gabriella Auchus 11 Ann Arbor Huron (MI) 11 24:19.7 102.2 58
101 Yasmine Lajimi 9 Saline (MI) 37 24:20.3 102.2 43
102 Maggie McCarren 12 Saline (MI) 38 24:20.8 102.1 44
103 Bailey Mehki 10 Temperance Bedford (MI) 15 24:28.9 101.6 45
104 Katerina Tang 10 Ann Arbor Skyline (MI) 12 24:32.2 101.3 46
105 Sarah Miller 12 Saline (MI) 39 24:34.6 101.2 47
106 Mackenzie Helpman 9 Temperance Bedford (MI) 16 24:35.2 101.1 48
107 Claire Cantelon 10 Ann Arbor Pioneer (MI) 17 24:40.8 100.8 49
108 Brooke Wilczynski 9 Saline (MI) 40 24:41.9 100.7 50
109 Eileen Shiau 9 Ann Arbor Huron (MI) 12 24:47.2 100.3 51
110 Chloe Lange 9 Saline (MI) 41 24:48.2 100.3 52
111 Taylor Vaughan 10 Saline (MI) 42 24:48.4 100.2 53
112 Caroline Wright 10 Ann Arbor Pioneer (MI) 18 24:48.8 100.2 54
113 Hope Stanford 10 Monroe (CA) 13 24:54.4 99.8 55
114 Jessica Conrad 12 Monroe (CA) 14 24:57.2 99.7 56
115 Amarachi Ikeji 11 Saline (MI) 43 24:58.8 99.6 57
116 Shea Byrne 9 Temperance Bedford (MI) 17 25:00.0 99.5 58
117 Sullivan Brow 11 Saline (MI) 44 25:03.9 99.2 59
118 Carmen Parkinson 9 Saline (MI) 45 25:05.8 99.1 60
119 Olympia Poplin 11 Ann Arbor Skyline (MI) 13 25:13.1 98.6 61
120 Kenndey Ulfig 11 Saline (MI) 46 25:15.4 98.5 62
121 Samantha Engelmeier 12 Saline (MI) 47 25:15.5 98.4 63
122 Saskia Van Nieuwstadt 9 Ann Arbor Huron (MI) 13 25:17.5 98.3 64
123 Courtney Fulcher 11 Ann Arbor Pioneer (MI) 19 25:18.7 98.2 65
124 Jessica Benore 11 Temperance Bedford (MI) 18 25:18.9 98.2 66
125 Chloe Fraleigh 11 Ann Arbor Skyline (MI) 14 25:20.3 98.1 67
126 Suzan Karabakal 10 Ann Arbor Huron (MI) 14 25:23.5 97.9 68
127 Lauryn Horace 12 Temperance Bedford (MI) 19 25:26.3 97.8 69
128 Emily Schlegel 11 Ann Arbor Skyline (MI) 15 25:35.8 97.2 70
129 McKayla Hubbard 11 Temperance Bedford (MI) 20 25:37.5 97.0 71
130 Megan Foley 9 Saline (MI) 48 25:46.9 96.4 72
131 Kristen Brown 12 Saline (MI) 49 25:47.1 96.4 73
132 Laura Kanji 12 Ann Arbor Huron (MI) 15 25:48.8 96.3 74
133 Kelsey Leppert 11 Saline (MI) 50 25:51.8 96.2 75
134 Sydney Chandler 11 Saline (MI) 51 25:53.2 96.1 76
135 Bridget Kennedy 12 Ann Arbor Skyline (MI) 16 25:54.6 96.0 77
136 Anna Loughman 9 Saline (MI) 52 25:55.2 95.9 78
137 Natalie McQuade 11 Saline (MI) 53 25:56.4 95.9 79
138 Claire Pastula 9 Ann Arbor Huron (MI) 16 25:57.3 95.8 80
139 Allison Rathbun 9 Monroe (CA) 15 25:57.6 95.8 81
140 Rebecca Crane 11 Temperance Bedford (MI) 21 25:57.7 95.8 82
141 Megan He 9 Ann Arbor Huron (MI) 17 26:11.5 94.9 83
142 Bao Phan 10 Saline (MI) 54 26:12.0 94.9 84
143 Sara Eitzman 10 Saline (MI) 55 26:12.1 94.9 85
144 Julie Cirtina 11 Saline (MI) 56 26:13.7 94.8 86
145 Jessa Davis 10 Saline (MI) 57 26:17.1 94.6 87
146 Lauren Green 12 Saline (MI) 58 26:19.3 94.5 88
147 Lily Earl 12 Saline (MI) 59 26:20.4 94.4 89
148 Morgan Mydloski 9 Monroe (CA) 16 26:22.4 94.3 90
149 Aly Dahlmann 12 Saline (MI) 60 26:23.4 94.2 91
150 Kathleen Reuter 12 Saline (MI) 61 26:25.5 94.1 92
151 Carrie Theisen - Saline (MI) 62 26:29.2 93.9 93
152 Mackenzie Kruszka 9 Temperance Bedford (MI) 22 26:32.1 93.7 94
153 Lauren Hunter 12 Saline (MI) 63 26:33.9 93.6 95
154 Sarah Fitzgerald 9 Temperance Bedford (MI) 23 26:37.4 93.4 96
155 Sarah Wilt 12 Temperance Bedford (MI) 24 26:39.7 93.3 97
156 Elizabeth Weeden 11 Saline (MI) 64 26:46.0 92.9 98
157 Nadia Auchus 12 Ann Arbor Huron (MI) 18 26:46.1 92.9 99
158 Hannah Cheng 10 Ann Arbor Huron (MI) 19 26:49.2 92.7 100
159 Emma Kimble 10 Monroe (CA) 17 26:52.9 92.5 101
160 Taylor Balcerzak 11 Temperance Bedford (MI) 25 26:56.8 92.3 102
161 Yadira Vega 10 Monroe (CA) 18 26:57.5 92.2 103
162 Lauren Boettger 10 Saline (MI) 65 27:05.8 91.8 104
163 Avery Nowosielski 10 Saline (MI) 66 27:06.4 91.7 105
164 Evalyn Stow 12 Saline (MI) 67 27:07.7 91.7 106
165 Caitlin Sundquist 10 Saline (MI) 68 27:08.3 91.6 107
166 Julia Jaske 11 Saline (MI) 69 27:12.1 91.4 108
167 Nia Lancit 10 Saline (MI) 70 27:23.3 90.8 109
168 Korynn Meyer 10 Monroe (CA) 19 27:24.0 90.8 110
169 Maddie Keith 12 Saline (MI) 71 27:25.6 90.7 111
170 Hannah Lee 9 Ann Arbor Huron (MI) 20 27:31.1 90.4 112
171 Claire Saylor 10 Saline (MI) 72 27:34.8 90.2 113
172 Alysa Clouse 9 Monroe (CA) 20 27:37.8 90.0 114
173 Lauren Sayre 11 Saline (MI) 73 28:02.3 88.7 115
174 Jordan Tek 9 Saline (MI) 74 28:03.5 88.6 116
175 Kristina Cell 9 Ann Arbor Huron (MI) 21 28:11.3 88.2 117
176 Anne Boyd 10 Ann Arbor Skyline (MI) 17 28:17.0 87.9 118
177 Carmen Giger 9 Ann Arbor Huron (MI) 22 28:18.4 87.8 119
178 Jillian Sutter 9 Temperance Bedford (MI) 26 28:24.5 87.5 120
179 Annie Nelson 9 Saline (MI) 75 28:28.1 87.3 121
180 Allison Learman 12 Saline (MI) 76 28:32.4 87.1 122
181 Jenna Cook 11 Saline (MI) 77 28:34.4 87.0 123
182 Pauline Wehlmann 11 Ann Arbor Skyline (MI) 18 28:37.3 86.9 124
183 Jimin Shin 9 Ann Arbor Huron (MI) 23 28:40.0 86.8 125
184 Rebecca Cho 12 Ann Arbor Huron (MI) 24 28:52.8 86.1 126
185 Allie Waite 11 Temperance Bedford (MI) 27 28:59.9 85.8 127
186 Sonia Rafique 12 Saline (MI) 78 29:03.3 85.6 128
187 Anna Berki 11 Saline (MI) 79 29:03.5 85.6 129
188 Elizabeth Irwin 11 Ann Arbor Skyline (MI) 19 29:05.2 85.5 130
189 Lindsey Murphy 10 Ann Arbor Skyline (MI) 20 29:08.5 131
190 Megan Ender 10 Saline (MI) 80 29:22.8 84.6 132
191 Jordan Gakle 11 Saline (MI) 81 29:27.6 84.4 133
192 KeShon Williams 9 Ann Arbor Skyline (MI) 21 29:29.1 84.3 134
193 Hanna Foreman 11 Ann Arbor Huron (MI) 25 29:31.2 84.2 135
194 Jane Burnett 9 Saline (MI) 82 29:31.5 84.2 136
195 Eliska Haladova 11 Ann Arbor Skyline (MI) 22 29:40.7 83.8 137
196 Rosie Li 9 Ann Arbor Huron (MI) 26 29:42.8 83.7 138
197 Sophie Masson 11 Ann Arbor Huron (MI) 27 29:53.5 83.2 139
198 Charlotte Taylor 11 Saline (MI) 83 29:55.8 83.1 140
199 Angelina Noll 12 Saline (MI) 84 30:19.5 82.0 141
200 Brittany Huff 12 Saline (MI) 85 30:33.2 81.4 142
201 Emily Luckett 12 Saline (MI) 86 30:35.0 81.3 143
202 Quinn Alexis 10 Saline (MI) 87 30:35.4 81.3 144
203 Samiksha Prakash 10 Ann Arbor Skyline (MI) 23 30:43.1 80.9 145
204 Katelyn Tayler 10 Monroe (CA) 21 30:57.4 80.3 146
205 Grace Cha 11 Ann Arbor Huron (MI) 28 31:08.2 79.9 147
206 Madison Rishel 11 Saline (MI) 88 31:08.4 79.9 148
207 Alex Miller 12 Saline (MI) 89 31:09.7 79.8 149
208 Jordyn Banek 9 Monroe (CA) 22 31:30.3 78.9 150
209 Lauren Guerard 11 Saline (MI) 90 32:27.3 151
210 Annie Fuelle 11 Saline (MI) 91 32:28.2 152
211 Karsten Whitley 9 Saline (MI) 92 32:35.2 76.3 153
212 Emily Louria 11 Saline (MI) 93 32:48.5 75.8 154
213 Andrea Luurtsema 10 Saline (MI) 94 32:48.9 155
214 Jennifer Green 10 Saline (MI) 95 33:32.0 74.2 156
215 Katelyn Fair 10 Saline (MI) 96 34:19.5 72.4 157
216 Chapin Patel 12 Saline (MI) 97 35:56.9 69.2 158
217 Lizzie Kendall 11 Saline (MI) 98 37:45.3 65.9 159
218 Brooke Rasmussen 12 Saline (MI) 99 38:02.1 65.4 160